sensor_id;sensor_type;location;lat;lon;timestamp;P1;durP1;ratioP1;P2;durP2;ratioP2
24663;SDS011;12791;50.992;13.788;2023-04-06T00:02:13;5.97;;;5.35;;
24663;SDS011;12791;50.992;13.788;2023-04-06T00:04:40;7.88;;;5.40;;
24663;SDS011;12791;50.992;13.788;2023-04-06T00:07:07;7.80;;;4.97;;
24663;SDS011;12791;50.992;13.788;2023-04-06T00:09:33;6.32;;;5.20;;
24663;SDS011;12791;50.992;13.788;2023-04-06T00:12:00;6.75;;;5.07;;
24663;SDS011;12791;50.992;13.788;2023-04-06T00:14:27;6.47;;;5.20;;
24663;SDS011;12791;50.992;13.788;2023-04-06T00:16:56;7.30;;;4.68;;
24663;SDS011;12791;50.992;13.788;2023-04-06T00:19:22;7.35;;;5.68;;
24663;SDS011;12791;50.992;13.788;2023-04-06T00:21:49;6.18;;;5.15;;
24663;SDS011;12791;50.992;13.788;2023-04-06T00:24:16;5.68;;;5.07;;
24663;SDS011;12791;50.992;13.788;2023-04-06T00:26:42;8.60;;;4.75;;
24663;SDS011;12791;50.992;13.788;2023-04-06T00:29:09;5.85;;;4.82;;
24663;SDS011;12791;50.992;13.788;2023-04-06T00:31:36;5.97;;;4.78;;
24663;SDS011;12791;50.992;13.788;2023-04-06T00:34:05;7.13;;;4.43;;
24663;SDS011;12791;50.992;13.788;2023-04-06T00:36:32;5.57;;;4.30;;
24663;SDS011;12791;50.992;13.788;2023-04-06T00:38:58;6.13;;;4.70;;
24663;SDS011;12791;50.992;13.788;2023-04-06T00:41:25;6.47;;;4.85;;
24663;SDS011;12791;50.992;13.788;2023-04-06T00:43:53;5.63;;;4.70;;
24663;SDS011;12791;50.992;13.788;2023-04-06T00:46:20;6.80;;;4.50;;
24663;SDS011;12791;50.992;13.788;2023-04-06T00:48:47;5.00;;;4.35;;
24663;SDS011;12791;50.992;13.788;2023-04-06T00:51:15;5.80;;;4.30;;
24663;SDS011;12791;50.992;13.788;2023-04-06T00:53:41;8.80;;;4.50;;
24663;SDS011;12791;50.992;13.788;2023-04-06T00:56:08;4.85;;;4.00;;
24663;SDS011;12791;50.992;13.788;2023-04-06T00:58:35;6.00;;;4.18;;
24663;SDS011;12791;50.992;13.788;2023-04-06T01:01:03;4.72;;;4.20;;
24663;SDS011;12791;50.992;13.788;2023-04-06T01:03:30;6.82;;;4.20;;
24663;SDS011;12791;50.992;13.788;2023-04-06T01:05:57;6.03;;;4.00;;
24663;SDS011;12791;50.992;13.788;2023-04-06T01:08:25;5.68;;;4.20;;
24663;SDS011;12791;50.992;13.788;2023-04-06T01:10:52;4.55;;;4.00;;
24663;SDS011;12791;50.992;13.788;2023-04-06T01:13:19;4.95;;;4.00;;
24663;SDS011;12791;50.992;13.788;2023-04-06T01:15:46;4.72;;;4.05;;
24663;SDS011;12791;50.992;13.788;2023-04-06T01:18:13;5.82;;;4.13;;
24663;SDS011;12791;50.992;13.788;2023-04-06T01:20:39;4.40;;;3.80;;
24663;SDS011;12791;50.992;13.788;2023-04-06T01:23:07;5.72;;;4.13;;
24663;SDS011;12791;50.992;13.788;2023-04-06T01:25:34;4.35;;;3.78;;
24663;SDS011;12791;50.992;13.788;2023-04-06T01:28:01;5.22;;;4.03;;
24663;SDS011;12791;50.992;13.788;2023-04-06T01:30:28;5.57;;;3.85;;
24663;SDS011;12791;50.992;13.788;2023-04-06T01:32:54;5.03;;;4.10;;
24663;SDS011;12791;50.992;13.788;2023-04-06T01:35:21;5.38;;;4.05;;
24663;SDS011;12791;50.992;13.788;2023-04-06T01:37:47;5.32;;;4.13;;
24663;SDS011;12791;50.992;13.788;2023-04-06T01:40:15;4.50;;;4.07;;
24663;SDS011;12791;50.992;13.788;2023-04-06T01:42:42;5.60;;;4.30;;
24663;SDS011;12791;50.992;13.788;2023-04-06T01:45:09;7.15;;;4.60;;
24663;SDS011;12791;50.992;13.788;2023-04-06T01:47:36;5.55;;;4.13;;
24663;SDS011;12791;50.992;13.788;2023-04-06T01:50:03;4.38;;;3.78;;
24663;SDS011;12791;50.992;13.788;2023-04-06T01:52:31;4.35;;;3.78;;
24663;SDS011;12791;50.992;13.788;2023-04-06T01:54:57;4.70;;;3.83;;
24663;SDS011;12791;50.992;13.788;2023-04-06T01:57:25;5.38;;;4.00;;
24663;SDS011;12791;50.992;13.788;2023-04-06T01:59:52;5.63;;;4.05;;
24663;SDS011;12791;50.992;13.788;2023-04-06T02:02:19;5.50;;;4.25;;
24663;SDS011;12791;50.992;13.788;2023-04-06T02:04:45;4.70;;;4.13;;
24663;SDS011;12791;50.992;13.788;2023-04-06T02:07:12;4.30;;;3.90;;
24663;SDS011;12791;50.992;13.788;2023-04-06T02:09:38;4.68;;;3.60;;
24663;SDS011;12791;50.992;13.788;2023-04-06T02:12:05;4.13;;;3.15;;
24663;SDS011;12791;50.992;13.788;2023-04-06T02:14:33;3.85;;;3.15;;
24663;SDS011;12791;50.992;13.788;2023-04-06T02:17:00;4.15;;;3.72;;
24663;SDS011;12791;50.992;13.788;2023-04-06T02:19:26;5.88;;;4.32;;
24663;SDS011;12791;50.992;13.788;2023-04-06T02:21:53;5.72;;;3.97;;
24663;SDS011;12791;50.992;13.788;2023-04-06T02:24:19;5.70;;;3.60;;
24663;SDS011;12791;50.992;13.788;2023-04-06T02:26:46;5.57;;;4.07;;
24663;SDS011;12791;50.992;13.788;2023-04-06T02:29:13;4.68;;;3.75;;
24663;SDS011;12791;50.992;13.788;2023-04-06T02:31:41;5.53;;;3.42;;
24663;SDS011;12791;50.992;13.788;2023-04-06T02:34:07;4.80;;;4.00;;
24663;SDS011;12791;50.992;13.788;2023-04-06T02:36:36;5.53;;;3.20;;
24663;SDS011;12791;50.992;13.788;2023-04-06T02:39:03;4.80;;;3.80;;
24663;SDS011;12791;50.992;13.788;2023-04-06T02:41:30;4.07;;;3.67;;
24663;SDS011;12791;50.992;13.788;2023-04-06T02:43:56;6.57;;;3.72;;
24663;SDS011;12791;50.992;13.788;2023-04-06T02:46:23;3.80;;;3.40;;
24663;SDS011;12791;50.992;13.788;2023-04-06T02:48:51;4.32;;;3.65;;
24663;SDS011;12791;50.992;13.788;2023-04-06T02:51:18;3.65;;;3.35;;
24663;SDS011;12791;50.992;13.788;2023-04-06T02:53:45;4.22;;;3.83;;
24663;SDS011;12791;50.992;13.788;2023-04-06T02:56:12;5.70;;;3.80;;
24663;SDS011;12791;50.992;13.788;2023-04-06T02:58:38;4.53;;;3.28;;
24663;SDS011;12791;50.992;13.788;2023-04-06T03:01:05;4.28;;;3.20;;
24663;SDS011;12791;50.992;13.788;2023-04-06T03:03:32;3.60;;;3.30;;
24663;SDS011;12791;50.992;13.788;2023-04-06T03:06:00;5.68;;;3.63;;
24663;SDS011;12791;50.992;13.788;2023-04-06T03:08:26;4.93;;;3.75;;
24663;SDS011;12791;50.992;13.788;2023-04-06T03:10:53;5.03;;;3.97;;
24663;SDS011;12791;50.992;13.788;2023-04-06T03:13:20;6.28;;;4.28;;
24663;SDS011;12791;50.992;13.788;2023-04-06T03:15:46;5.63;;;4.40;;
24663;SDS011;12791;50.992;13.788;2023-04-06T03:18:13;3.95;;;3.50;;
24663;SDS011;12791;50.992;13.788;2023-04-06T03:20:40;4.10;;;3.58;;
24663;SDS011;12791;50.992;13.788;2023-04-06T03:23:08;5.95;;;4.10;;
24663;SDS011;12791;50.992;13.788;2023-04-06T03:25:34;6.40;;;4.20;;
24663;SDS011;12791;50.992;13.788;2023-04-06T03:28:01;5.18;;;4.18;;
24663;SDS011;12791;50.992;13.788;2023-04-06T03:30:28;5.25;;;4.75;;
24663;SDS011;12791;50.992;13.788;2023-04-06T03:32:54;6.50;;;3.83;;
24663;SDS011;12791;50.992;13.788;2023-04-06T03:35:21;4.30;;;3.55;;
24663;SDS011;12791;50.992;13.788;2023-04-06T03:37:48;4.18;;;3.80;;
24663;SDS011;12791;50.992;13.788;2023-04-06T03:40:15;4.97;;;3.85;;
24663;SDS011;12791;50.992;13.788;2023-04-06T03:42:42;5.07;;;3.90;;
24663;SDS011;12791;50.992;13.788;2023-04-06T03:45:09;5.45;;;3.78;;
24663;SDS011;12791;50.992;13.788;2023-04-06T03:47:37;5.28;;;4.30;;
24663;SDS011;12791;50.992;13.788;2023-04-06T03:50:04;4.80;;;4.40;;
24663;SDS011;12791;50.992;13.788;2023-04-06T03:52:32;6.38;;;4.38;;
24663;SDS011;12791;50.992;13.788;2023-04-06T03:54:58;5.15;;;3.75;;
24663;SDS011;12791;50.992;13.788;2023-04-06T03:57:26;5.28;;;4.00;;
24663;SDS011;12791;50.992;13.788;2023-04-06T03:59:53;6.35;;;3.67;;
24663;SDS011;12791;50.992;13.788;2023-04-06T04:02:19;5.50;;;3.70;;
24663;SDS011;12791;50.992;13.788;2023-04-06T04:04:46;6.15;;;4.47;;
24663;SDS011;12791;50.992;13.788;2023-04-06T04:07:12;6.25;;;3.92;;
24663;SDS011;12791;50.992;13.788;2023-04-06T04:09:39;5.38;;;4.47;;
24663;SDS011;12791;50.992;13.788;2023-04-06T04:12:06;4.53;;;3.92;;
24663;SDS011;12791;50.992;13.788;2023-04-06T04:14:34;5.13;;;4.38;;
24663;SDS011;12791;50.992;13.788;2023-04-06T04:17:00;4.65;;;4.03;;
24663;SDS011;12791;50.992;13.788;2023-04-06T04:19:27;4.95;;;4.35;;
24663;SDS011;12791;50.992;13.788;2023-04-06T04:21:54;6.97;;;4.63;;
24663;SDS011;12791;50.992;13.788;2023-04-06T04:24:20;5.72;;;4.40;;
24663;SDS011;12791;50.992;13.788;2023-04-06T04:26:47;7.03;;;4.78;;
24663;SDS011;12791;50.992;13.788;2023-04-06T04:29:14;5.25;;;4.20;;
24663;SDS011;12791;50.992;13.788;2023-04-06T04:31:42;7.70;;;5.00;;
24663;SDS011;12791;50.992;13.788;2023-04-06T04:34:09;6.70;;;4.93;;
24663;SDS011;12791;50.992;13.788;2023-04-06T04:36:36;7.03;;;5.10;;
24663;SDS011;12791;50.992;13.788;2023-04-06T04:39:02;6.78;;;4.85;;
24663;SDS011;12791;50.992;13.788;2023-04-06T04:41:29;4.88;;;3.97;;
24663;SDS011;12791;50.992;13.788;2023-04-06T04:43:56;5.45;;;3.97;;
24663;SDS011;12791;50.992;13.788;2023-04-06T04:46:22;6.40;;;4.30;;
24663;SDS011;12791;50.992;13.788;2023-04-06T04:48:50;4.28;;;3.88;;
24663;SDS011;12791;50.992;13.788;2023-04-06T04:51:17;4.93;;;4.13;;
24663;SDS011;12791;50.992;13.788;2023-04-06T04:53:44;6.20;;;4.78;;
24663;SDS011;12791;50.992;13.788;2023-04-06T04:56:11;6.75;;;4.47;;
24663;SDS011;12791;50.992;13.788;2023-04-06T04:58:37;6.70;;;4.40;;
24663;SDS011;12791;50.992;13.788;2023-04-06T05:01:04;5.88;;;4.55;;
24663;SDS011;12791;50.992;13.788;2023-04-06T05:03:31;6.25;;;4.63;;
24663;SDS011;12791;50.992;13.788;2023-04-06T05:06:00;7.88;;;5.00;;
24663;SDS011;12791;50.992;13.788;2023-04-06T05:08:26;7.57;;;5.05;;
24663;SDS011;12791;50.992;13.788;2023-04-06T05:10:53;7.07;;;4.82;;
24663;SDS011;12791;50.992;13.788;2023-04-06T05:13:20;6.38;;;4.75;;
24663;SDS011;12791;50.992;13.788;2023-04-06T05:15:47;7.32;;;5.82;;
24663;SDS011;12791;50.992;13.788;2023-04-06T05:18:13;5.72;;;4.65;;
24663;SDS011;12791;50.992;13.788;2023-04-06T05:20:40;7.00;;;4.97;;
24663;SDS011;12791;50.992;13.788;2023-04-06T05:23:09;6.35;;;5.00;;
24663;SDS011;12791;50.992;13.788;2023-04-06T05:25:36;5.22;;;4.57;;
24663;SDS011;12791;50.992;13.788;2023-04-06T05:28:03;7.32;;;4.72;;
24663;SDS011;12791;50.992;13.788;2023-04-06T05:30:29;5.53;;;4.78;;
24663;SDS011;12791;50.992;13.788;2023-04-06T05:32:56;7.18;;;5.38;;
24663;SDS011;12791;50.992;13.788;2023-04-06T05:35:22;7.72;;;5.35;;
24663;SDS011;12791;50.992;13.788;2023-04-06T05:37:49;6.75;;;5.15;;
24663;SDS011;12791;50.992;13.788;2023-04-06T05:40:17;7.40;;;5.10;;
24663;SDS011;12791;50.992;13.788;2023-04-06T05:42:44;5.93;;;4.45;;
24663;SDS011;12791;50.992;13.788;2023-04-06T05:45:12;5.35;;;4.05;;
24663;SDS011;12791;50.992;13.788;2023-04-06T05:47:41;6.07;;;4.57;;
24663;SDS011;12791;50.992;13.788;2023-04-06T05:50:09;7.13;;;4.82;;
24663;SDS011;12791;50.992;13.788;2023-04-06T05:52:36;9.88;;;4.78;;
24663;SDS011;12791;50.992;13.788;2023-04-06T05:55:02;6.63;;;4.40;;
24663;SDS011;12791;50.992;13.788;2023-04-06T05:57:31;7.20;;;6.05;;
24663;SDS011;12791;50.992;13.788;2023-04-06T05:59:58;10.45;;;6.50;;
24663;SDS011;12791;50.992;13.788;2023-04-06T06:02:24;9.82;;;5.70;;
24663;SDS011;12791;50.992;13.788;2023-04-06T06:04:51;9.57;;;6.05;;
24663;SDS011;12791;50.992;13.788;2023-04-06T06:07:17;8.68;;;5.72;;
24663;SDS011;12791;50.992;13.788;2023-04-06T06:09:44;8.18;;;5.60;;
24663;SDS011;12791;50.992;13.788;2023-04-06T06:12:11;7.32;;;5.13;;
24663;SDS011;12791;50.992;13.788;2023-04-06T06:14:39;7.75;;;5.57;;
24663;SDS011;12791;50.992;13.788;2023-04-06T06:17:05;8.25;;;5.43;;
24663;SDS011;12791;50.992;13.788;2023-04-06T06:19:32;8.23;;;5.50;;
24663;SDS011;12791;50.992;13.788;2023-04-06T06:21:58;9.73;;;5.65;;
24663;SDS011;12791;50.992;13.788;2023-04-06T06:24:27;11.35;;;6.80;;
24663;SDS011;12791;50.992;13.788;2023-04-06T06:26:54;9.55;;;7.57;;
24663;SDS011;12791;50.992;13.788;2023-04-06T06:29:20;14.32;;;6.82;;
24663;SDS011;12791;50.992;13.788;2023-04-06T06:31:50;10.93;;;6.65;;
24663;SDS011;12791;50.992;13.788;2023-04-06T06:34:16;12.30;;;6.80;;
24663;SDS011;12791;50.992;13.788;2023-04-06T06:36:43;10.88;;;7.45;;
24663;SDS011;12791;50.992;13.788;2023-04-06T06:39:09;11.23;;;7.22;;
24663;SDS011;12791;50.992;13.788;2023-04-06T06:41:36;10.00;;;7.25;;
24663;SDS011;12791;50.992;13.788;2023-04-06T06:44:03;10.55;;;6.97;;
24663;SDS011;12791;50.992;13.788;2023-04-06T06:46:30;9.40;;;6.90;;
24663;SDS011;12791;50.992;13.788;2023-04-06T06:48:58;9.63;;;7.05;;
24663;SDS011;12791;50.992;13.788;2023-04-06T06:51:25;11.13;;;7.18;;
24663;SDS011;12791;50.992;13.788;2023-04-06T06:53:51;10.02;;;7.05;;
24663;SDS011;12791;50.992;13.788;2023-04-06T06:56:18;13.30;;;7.22;;
24663;SDS011;12791;50.992;13.788;2023-04-06T06:58:45;12.35;;;7.28;;
24663;SDS011;12791;50.992;13.788;2023-04-06T07:01:11;9.30;;;7.45;;
24663;SDS011;12791;50.992;13.788;2023-04-06T07:03:38;9.98;;;7.32;;
24663;SDS011;12791;50.992;13.788;2023-04-06T07:06:06;9.68;;;7.40;;
24663;SDS011;12791;50.992;13.788;2023-04-06T07:08:32;9.65;;;7.45;;
24663;SDS011;12791;50.992;13.788;2023-04-06T07:10:59;10.60;;;7.28;;
24663;SDS011;12791;50.992;13.788;2023-04-06T07:13:26;10.55;;;7.55;;
24663;SDS011;12791;50.992;13.788;2023-04-06T07:15:52;12.65;;;7.88;;
24663;SDS011;12791;50.992;13.788;2023-04-06T07:18:19;8.80;;;6.70;;
24663;SDS011;12791;50.992;13.788;2023-04-06T07:20:46;10.27;;;7.40;;
24663;SDS011;12791;50.992;13.788;2023-04-06T07:23:14;12.60;;;8.05;;
24663;SDS011;12791;50.992;13.788;2023-04-06T07:25:41;10.00;;;7.10;;
24663;SDS011;12791;50.992;13.788;2023-04-06T07:28:07;9.07;;;6.85;;
24663;SDS011;12791;50.992;13.788;2023-04-06T07:30:34;10.05;;;7.93;;
24663;SDS011;12791;50.992;13.788;2023-04-06T07:33:02;9.55;;;7.18;;
24663;SDS011;12791;50.992;13.788;2023-04-06T07:35:30;13.00;;;7.60;;
24663;SDS011;12791;50.992;13.788;2023-04-06T07:37:57;11.50;;;7.25;;
24663;SDS011;12791;50.992;13.788;2023-04-06T07:40:25;9.93;;;7.47;;
24663;SDS011;12791;50.992;13.788;2023-04-06T07:42:52;12.45;;;7.68;;
24663;SDS011;12791;50.992;13.788;2023-04-06T07:45:19;11.68;;;7.38;;
24663;SDS011;12791;50.992;13.788;2023-04-06T07:47:45;13.35;;;7.93;;
24663;SDS011;12791;50.992;13.788;2023-04-06T07:50:12;8.50;;;7.57;;
24663;SDS011;12791;50.992;13.788;2023-04-06T07:52:39;11.18;;;7.35;;
24663;SDS011;12791;50.992;13.788;2023-04-06T07:55:06;8.52;;;7.60;;
24663;SDS011;12791;50.992;13.788;2023-04-06T07:57:34;10.43;;;6.88;;
24663;SDS011;12791;50.992;13.788;2023-04-06T08:00:01;11.13;;;7.55;;
24663;SDS011;12791;50.992;13.788;2023-04-06T08:02:28;10.75;;;7.40;;
24663;SDS011;12791;50.992;13.788;2023-04-06T08:04:55;8.38;;;7.28;;
24663;SDS011;12791;50.992;13.788;2023-04-06T08:07:22;8.70;;;6.68;;
24663;SDS011;12791;50.992;13.788;2023-04-06T08:09:48;11.55;;;7.47;;
24663;SDS011;12791;50.992;13.788;2023-04-06T08:12:15;12.70;;;7.93;;
24663;SDS011;12791;50.992;13.788;2023-04-06T08:14:43;8.75;;;7.10;;
24663;SDS011;12791;50.992;13.788;2023-04-06T08:17:09;15.57;;;8.77;;
24663;SDS011;12791;50.992;13.788;2023-04-06T08:19:36;9.60;;;7.57;;
24663;SDS011;12791;50.992;13.788;2023-04-06T08:22:03;8.60;;;6.80;;
24663;SDS011;12791;50.992;13.788;2023-04-06T08:24:30;7.90;;;6.07;;
24663;SDS011;12791;50.992;13.788;2023-04-06T08:26:57;9.88;;;6.75;;
24663;SDS011;12791;50.992;13.788;2023-04-06T08:29:24;9.93;;;6.80;;
24663;SDS011;12791;50.992;13.788;2023-04-06T08:31:52;9.05;;;7.18;;
24663;SDS011;12791;50.992;13.788;2023-04-06T08:34:18;8.43;;;7.53;;
24663;SDS011;12791;50.992;13.788;2023-04-06T08:36:45;7.90;;;6.95;;
24663;SDS011;12791;50.992;13.788;2023-04-06T08:39:12;10.93;;;7.05;;
24663;SDS011;12791;50.992;13.788;2023-04-06T08:41:41;8.73;;;7.18;;
24663;SDS011;12791;50.992;13.788;2023-04-06T08:44:07;10.07;;;7.43;;
24663;SDS011;12791;50.992;13.788;2023-04-06T08:46:34;9.15;;;7.43;;
24663;SDS011;12791;50.992;13.788;2023-04-06T08:49:02;12.30;;;7.78;;
24663;SDS011;12791;50.992;13.788;2023-04-06T08:51:31;8.00;;;6.53;;
24663;SDS011;12791;50.992;13.788;2023-04-06T08:53:58;12.93;;;7.07;;
24663;SDS011;12791;50.992;13.788;2023-04-06T08:56:26;8.85;;;7.07;;
24663;SDS011;12791;50.992;13.788;2023-04-06T08:58:54;7.95;;;6.80;;
24663;SDS011;12791;50.992;13.788;2023-04-06T09:01:22;9.02;;;6.55;;
24663;SDS011;12791;50.992;13.788;2023-04-06T09:03:52;6.53;;;5.68;;
24663;SDS011;12791;50.992;13.788;2023-04-06T09:06:24;7.40;;;5.82;;
24663;SDS011;12791;50.992;13.788;2023-04-06T09:08:51;5.78;;;5.15;;
24663;SDS011;12791;50.992;13.788;2023-04-06T09:11:19;6.28;;;5.57;;
24663;SDS011;12791;50.992;13.788;2023-04-06T09:13:47;7.53;;;6.00;;
24663;SDS011;12791;50.992;13.788;2023-04-06T09:16:15;6.38;;;4.82;;
24663;SDS011;12791;50.992;13.788;2023-04-06T09:18:42;5.47;;;4.75;;
24663;SDS011;12791;50.992;13.788;2023-04-06T09:21:09;4.25;;;3.72;;
24663;SDS011;12791;50.992;13.788;2023-04-06T09:23:38;6.53;;;5.03;;
24663;SDS011;12791;50.992;13.788;2023-04-06T09:26:06;7.53;;;5.47;;
24663;SDS011;12791;50.992;13.788;2023-04-06T09:28:41;5.35;;;4.88;;
24663;SDS011;12791;50.992;13.788;2023-04-06T09:31:10;7.00;;;5.40;;
24663;SDS011;12791;50.992;13.788;2023-04-06T09:33:37;6.18;;;5.07;;
24663;SDS011;12791;50.992;13.788;2023-04-06T09:36:05;6.38;;;5.00;;
24663;SDS011;12791;50.992;13.788;2023-04-06T09:38:32;5.85;;;4.60;;
24663;SDS011;12791;50.992;13.788;2023-04-06T09:41:00;4.80;;;4.35;;
24663;SDS011;12791;50.992;13.788;2023-04-06T09:43:27;4.93;;;4.45;;
24663;SDS011;12791;50.992;13.788;2023-04-06T09:45:55;5.82;;;4.43;;
24663;SDS011;12791;50.992;13.788;2023-04-06T09:48:22;5.03;;;4.53;;
24663;SDS011;12791;50.992;13.788;2023-04-06T09:50:51;6.90;;;5.20;;
24663;SDS011;12791;50.992;13.788;2023-04-06T09:53:25;5.22;;;4.57;;
24663;SDS011;12791;50.992;13.788;2023-04-06T09:55:56;4.45;;;4.05;;
24663;SDS011;12791;50.992;13.788;2023-04-06T09:58:27;5.53;;;4.22;;
24663;SDS011;12791;50.992;13.788;2023-04-06T10:01:01;4.85;;;4.35;;
24663;SDS011;12791;50.992;13.788;2023-04-06T10:03:34;5.63;;;4.60;;
24663;SDS011;12791;50.992;13.788;2023-04-06T10:06:10;5.18;;;4.18;;
24663;SDS011;12791;50.992;13.788;2023-04-06T10:08:39;5.32;;;4.50;;
24663;SDS011;12791;50.992;13.788;2023-04-06T10:11:07;4.25;;;3.80;;
24663;SDS011;12791;50.992;13.788;2023-04-06T10:13:36;6.45;;;4.47;;
24663;SDS011;12791;50.992;13.788;2023-04-06T10:16:03;5.68;;;4.80;;
24663;SDS011;12791;50.992;13.788;2023-04-06T10:18:30;5.05;;;4.45;;
24663;SDS011;12791;50.992;13.788;2023-04-06T10:21:00;5.18;;;4.70;;
24663;SDS011;12791;50.992;13.788;2023-04-06T10:23:31;5.30;;;4.20;;
24663;SDS011;12791;50.992;13.788;2023-04-06T10:26:01;4.97;;;4.47;;
24663;SDS011;12791;50.992;13.788;2023-04-06T10:28:30;4.60;;;4.18;;
24663;SDS011;12791;50.992;13.788;2023-04-06T10:30:59;4.15;;;3.85;;
24663;SDS011;12791;50.992;13.788;2023-04-06T10:33:27;4.15;;;3.75;;
24663;SDS011;12791;50.992;13.788;2023-04-06T10:35:54;5.50;;;4.32;;
24663;SDS011;12791;50.992;13.788;2023-04-06T10:38:21;4.72;;;4.28;;
24663;SDS011;12791;50.992;13.788;2023-04-06T10:41:03;5.18;;;4.15;;
24663;SDS011;12791;50.992;13.788;2023-04-06T10:43:32;4.95;;;4.25;;
24663;SDS011;12791;50.992;13.788;2023-04-06T10:46:01;5.43;;;4.22;;
24663;SDS011;12791;50.992;13.788;2023-04-06T10:48:36;5.22;;;4.10;;
24663;SDS011;12791;50.992;13.788;2023-04-06T10:51:07;5.90;;;5.07;;
24663;SDS011;12791;50.992;13.788;2023-04-06T10:53:35;4.95;;;4.35;;
24663;SDS011;12791;50.992;13.788;2023-04-06T10:56:01;4.95;;;4.00;;
24663;SDS011;12791;50.992;13.788;2023-04-06T10:58:29;4.18;;;3.78;;
24663;SDS011;12791;50.992;13.788;2023-04-06T11:00:56;4.47;;;3.92;;
24663;SDS011;12791;50.992;13.788;2023-04-06T11:03:26;4.97;;;3.95;;
24663;SDS011;12791;50.992;13.788;2023-04-06T11:05:52;4.75;;;4.22;;
24663;SDS011;12791;50.992;13.788;2023-04-06T11:08:23;4.82;;;4.35;;
24663;SDS011;12791;50.992;13.788;2023-04-06T11:10:51;6.90;;;4.68;;
24663;SDS011;12791;50.992;13.788;2023-04-06T11:13:17;3.80;;;3.50;;
24663;SDS011;12791;50.992;13.788;2023-04-06T11:15:44;3.40;;;3.10;;
24663;SDS011;12791;50.992;13.788;2023-04-06T11:18:11;4.47;;;3.90;;
24663;SDS011;12791;50.992;13.788;2023-04-06T11:20:39;3.92;;;3.63;;
24663;SDS011;12791;50.992;13.788;2023-04-06T11:23:06;4.78;;;4.30;;
24663;SDS011;12791;50.992;13.788;2023-04-06T11:25:33;4.70;;;4.18;;
24663;SDS011;12791;50.992;13.788;2023-04-06T11:28:00;4.70;;;4.30;;
24663;SDS011;12791;50.992;13.788;2023-04-06T11:30:27;4.53;;;4.15;;
24663;SDS011;12791;50.992;13.788;2023-04-06T11:33:00;5.07;;;4.63;;
24663;SDS011;12791;50.992;13.788;2023-04-06T11:35:27;4.93;;;4.45;;
24663;SDS011;12791;50.992;13.788;2023-04-06T11:38:02;4.65;;;4.28;;
24663;SDS011;12791;50.992;13.788;2023-04-06T11:40:29;4.72;;;3.78;;
24663;SDS011;12791;50.992;13.788;2023-04-06T11:42:58;4.95;;;4.53;;
24663;SDS011;12791;50.992;13.788;2023-04-06T11:45:24;4.70;;;4.40;;
24663;SDS011;12791;50.992;13.788;2023-04-06T11:47:58;3.70;;;3.47;;
24663;SDS011;12791;50.992;13.788;2023-04-06T11:50:31;3.60;;;3.30;;
24663;SDS011;12791;50.992;13.788;2023-04-06T11:53:00;4.28;;;3.90;;
24663;SDS011;12791;50.992;13.788;2023-04-06T11:55:27;4.32;;;3.92;;
24663;SDS011;12791;50.992;13.788;2023-04-06T11:57:54;5.32;;;4.55;;
24663;SDS011;12791;50.992;13.788;2023-04-06T12:00:21;4.03;;;3.63;;
24663;SDS011;12791;50.992;13.788;2023-04-06T12:02:48;4.05;;;3.75;;
24663;SDS011;12791;50.992;13.788;2023-04-06T12:05:15;3.97;;;3.67;;
24663;SDS011;12791;50.992;13.788;2023-04-06T12:07:42;5.22;;;4.22;;
24663;SDS011;12791;50.992;13.788;2023-04-06T12:10:10;4.47;;;4.07;;
24663;SDS011;12791;50.992;13.788;2023-04-06T12:12:37;4.00;;;3.70;;
24663;SDS011;12791;50.992;13.788;2023-04-06T12:15:04;5.32;;;4.15;;
24663;SDS011;12791;50.992;13.788;2023-04-06T12:17:32;4.20;;;3.83;;
24663;SDS011;12791;50.992;13.788;2023-04-06T12:19:59;5.03;;;3.85;;
24663;SDS011;12791;50.992;13.788;2023-04-06T12:22:25;4.70;;;4.30;;
24663;SDS011;12791;50.992;13.788;2023-04-06T12:24:52;4.80;;;3.85;;
24663;SDS011;12791;50.992;13.788;2023-04-06T12:27:20;6.13;;;4.68;;
24663;SDS011;12791;50.992;13.788;2023-04-06T12:29:46;4.57;;;4.18;;
24663;SDS011;12791;50.992;13.788;2023-04-06T12:32:13;4.97;;;4.25;;
24663;SDS011;12791;50.992;13.788;2023-04-06T12:34:40;4.70;;;4.40;;
24663;SDS011;12791;50.992;13.788;2023-04-06T12:37:06;5.63;;;4.10;;
24663;SDS011;12791;50.992;13.788;2023-04-06T12:39:33;4.40;;;4.00;;
24663;SDS011;12791;50.992;13.788;2023-04-06T12:42:00;4.18;;;3.80;;
24663;SDS011;12791;50.992;13.788;2023-04-06T12:44:28;5.35;;;3.58;;
24663;SDS011;12791;50.992;13.788;2023-04-06T12:46:55;4.00;;;3.70;;
24663;SDS011;12791;50.992;13.788;2023-04-06T12:49:22;4.55;;;4.20;;
24663;SDS011;12791;50.992;13.788;2023-04-06T12:51:48;6.35;;;4.50;;
24663;SDS011;12791;50.992;13.788;2023-04-06T12:54:15;5.10;;;4.50;;
24663;SDS011;12791;50.992;13.788;2023-04-06T12:56:42;5.78;;;4.80;;
24663;SDS011;12791;50.992;13.788;2023-04-06T12:59:08;5.38;;;4.88;;
24663;SDS011;12791;50.992;13.788;2023-04-06T13:01:36;5.57;;;5.05;;
24663;SDS011;12791;50.992;13.788;2023-04-06T13:04:03;5.38;;;4.88;;
24663;SDS011;12791;50.992;13.788;2023-04-06T13:06:30;5.03;;;4.00;;
24663;SDS011;12791;50.992;13.788;2023-04-06T13:08:56;4.97;;;4.57;;
24663;SDS011;12791;50.992;13.788;2023-04-06T13:11:23;5.72;;;4.53;;
24663;SDS011;12791;50.992;13.788;2023-04-06T13:13:51;5.10;;;4.60;;
24663;SDS011;12791;50.992;13.788;2023-04-06T13:16:18;5.75;;;5.18;;
24663;SDS011;12791;50.992;13.788;2023-04-06T13:18:46;5.90;;;5.38;;
24663;SDS011;12791;50.992;13.788;2023-04-06T13:21:13;5.97;;;5.18;;
24663;SDS011;12791;50.992;13.788;2023-04-06T13:23:41;6.18;;;4.43;;
24663;SDS011;12791;50.992;13.788;2023-04-06T13:26:08;4.55;;;4.15;;
24663;SDS011;12791;50.992;13.788;2023-04-06T13:28:36;4.28;;;3.95;;
24663;SDS011;12791;50.992;13.788;2023-04-06T13:31:03;5.15;;;4.32;;
24663;SDS011;12791;50.992;13.788;2023-04-06T13:33:30;5.32;;;4.93;;
24663;SDS011;12791;50.992;13.788;2023-04-06T13:35:59;5.68;;;5.10;;
24663;SDS011;12791;50.992;13.788;2023-04-06T13:38:25;4.80;;;4.40;;
24663;SDS011;12791;50.992;13.788;2023-04-06T13:40:52;4.78;;;4.35;;
24663;SDS011;12791;50.992;13.788;2023-04-06T13:43:19;5.40;;;4.32;;
24663;SDS011;12791;50.992;13.788;2023-04-06T13:45:48;4.97;;;4.35;;
24663;SDS011;12791;50.992;13.788;2023-04-06T13:48:16;4.15;;;3.75;;
24663;SDS011;12791;50.992;13.788;2023-04-06T13:50:42;4.13;;;3.83;;
24663;SDS011;12791;50.992;13.788;2023-04-06T13:53:11;4.43;;;4.03;;
24663;SDS011;12791;50.992;13.788;2023-04-06T13:55:38;5.60;;;4.57;;
24663;SDS011;12791;50.992;13.788;2023-04-06T13:58:05;4.55;;;4.20;;
24663;SDS011;12791;50.992;13.788;2023-04-06T14:00:31;4.50;;;4.10;;
24663;SDS011;12791;50.992;13.788;2023-04-06T14:02:58;4.63;;;4.13;;
24663;SDS011;12791;50.992;13.788;2023-04-06T14:05:25;4.35;;;3.95;;
24663;SDS011;12791;50.992;13.788;2023-04-06T14:07:52;4.57;;;4.20;;
24663;SDS011;12791;50.992;13.788;2023-04-06T14:10:20;5.07;;;4.65;;
24663;SDS011;12791;50.992;13.788;2023-04-06T14:12:48;4.43;;;4.13;;
24663;SDS011;12791;50.992;13.788;2023-04-06T14:15:15;5.35;;;4.78;;
24663;SDS011;12791;50.992;13.788;2023-04-06T14:17:42;4.18;;;3.80;;
24663;SDS011;12791;50.992;13.788;2023-04-06T14:20:09;4.80;;;4.07;;
24663;SDS011;12791;50.992;13.788;2023-04-06T14:22:39;4.13;;;3.72;;
24663;SDS011;12791;50.992;13.788;2023-04-06T14:25:06;3.53;;;3.22;;
24663;SDS011;12791;50.992;13.788;2023-04-06T14:27:35;4.90;;;3.53;;
24663;SDS011;12791;50.992;13.788;2023-04-06T14:30:01;5.85;;;4.22;;
24663;SDS011;12791;50.992;13.788;2023-04-06T14:32:28;4.15;;;3.75;;
24663;SDS011;12791;50.992;13.788;2023-04-06T14:34:55;4.57;;;4.07;;